createdAt,value
2023-02-18T00:01:53.415Z,0.80
2023-02-18T00:04:21.126Z,0.40
2023-02-18T00:06:49.084Z,1.70
2023-02-18T00:09:17.007Z,0.70
2023-02-18T00:11:47.075Z,1.40
2023-02-18T00:14:17.515Z,1.00
2023-02-18T00:16:47.415Z,0.60
2023-02-18T00:19:19.145Z,0.90
2023-02-18T00:21:47.817Z,0.90
2023-02-18T00:24:17.677Z,0.80
2023-02-18T00:26:49.882Z,0.60
2023-02-18T00:29:18.491Z,0.80
2023-02-18T00:31:46.427Z,0.70
2023-02-18T00:34:14.389Z,0.70
2023-02-18T00:36:42.888Z,1.60
2023-02-18T00:39:12.783Z,0.70
2023-02-18T00:41:43.272Z,0.80
2023-02-18T00:44:13.068Z,0.50
2023-02-18T00:46:41.229Z,0.50
2023-02-18T00:49:10.360Z,0.40
2023-02-18T00:51:38.680Z,1.30
2023-02-18T00:54:06.682Z,1.10
2023-02-18T00:56:35.234Z,0.90
2023-02-18T00:59:03.868Z,1.00
2023-02-18T01:01:31.911Z,1.00
2023-02-18T01:04:01.702Z,3.20
2023-02-18T01:06:29.564Z,0.80
2023-02-18T01:08:57.390Z,0.40
2023-02-18T01:11:25.267Z,0.30
2023-02-18T01:13:53.908Z,0.30
2023-02-18T01:16:22.564Z,4.60
2023-02-18T01:18:50.771Z,0.90
2023-02-18T01:21:18.685Z,0.40
2023-02-18T01:23:46.503Z,0.40
2023-02-18T01:26:14.424Z,0.70
2023-02-18T01:28:42.204Z,0.40
2023-02-18T01:31:13.918Z,0.60
2023-02-18T01:33:42.814Z,0.50
2023-02-18T01:36:12.023Z,1.10
2023-02-18T01:38:43.027Z,0.60
2023-02-18T01:41:11.585Z,2.00
2023-02-18T01:43:40.414Z,0.50
2023-02-18T01:46:22.127Z,0.50
2023-02-18T01:49:01.370Z,1.00
2023-02-18T01:51:37.682Z,0.60
2023-02-18T01:54:52.305Z,0.80
2023-02-18T01:57:25.758Z,1.10
2023-02-18T02:00:06.431Z,0.40
2023-02-18T02:02:42.372Z,0.30
2023-02-18T02:05:10.986Z,0.50
2023-02-18T02:07:42.908Z,0.70
2023-02-18T02:10:14.832Z,0.90
2023-02-18T02:13:15.450Z,0.40
2023-02-18T02:16:11.091Z,0.70
2023-02-18T02:19:10.273Z,0.40
2023-02-18T02:21:59.003Z,0.40
2023-02-18T02:25:07.627Z,0.40
2023-02-18T02:28:34.719Z,0.50
2023-02-18T02:31:32.579Z,0.30
2023-02-18T02:34:29.276Z,0.40
2023-02-18T02:37:16.672Z,0.60
2023-02-18T02:40:26.091Z,0.50
2023-02-18T02:43:29.717Z,0.70
2023-02-18T02:46:16.011Z,0.60
2023-02-18T02:48:50.360Z,0.40
2023-02-18T02:51:40.084Z,0.40
2023-02-18T02:54:20.438Z,0.30
2023-02-18T02:56:49.749Z,0.80
2023-02-18T02:59:26.005Z,1.20
2023-02-18T03:02:12.125Z,0.40
2023-02-18T03:05:15.295Z,0.50
2023-02-18T03:08:31.643Z,0.70
2023-02-18T03:11:11.853Z,0.70
2023-02-18T03:14:15.755Z,0.40
2023-02-18T03:17:15.732Z,0.40
2023-02-18T03:19:53.105Z,0.70
2023-02-18T03:22:30.680Z,0.40
2023-02-18T03:25:00.485Z,0.40
2023-02-18T03:27:41.054Z,0.30
2023-02-18T03:30:23.020Z,0.40
2023-02-18T03:32:59.072Z,0.50
2023-02-18T03:35:28.483Z,0.40
2023-02-18T03:38:15.406Z,0.30
2023-02-18T03:40:44.214Z,0.40
2023-02-18T03:43:11.872Z,0.30
2023-02-18T03:45:40.168Z,0.40
2023-02-18T03:48:08.265Z,1.30
2023-02-18T03:50:36.045Z,0.30
2023-02-18T03:53:03.834Z,0.30
2023-02-18T03:55:31.590Z,0.40
2023-02-18T03:58:00.898Z,0.90
2023-02-18T04:00:28.631Z,0.30
2023-02-18T04:02:56.293Z,1.60
2023-02-18T04:05:24.504Z,1.90
2023-02-18T04:07:53.687Z,0.40
2023-02-18T04:10:23.136Z,1.20
2023-02-18T04:12:50.852Z,2.10
2023-02-18T04:15:18.837Z,0.50
2023-02-18T04:17:48.936Z,0.90
2023-02-18T04:20:16.985Z,0.30
2023-02-18T04:22:47.847Z,1.00
2023-02-18T04:25:16.141Z,0.60
2023-02-18T04:27:44.728Z,0.60
2023-02-18T04:30:12.941Z,1.20
2023-02-18T04:32:40.898Z,0.40
2023-02-18T04:35:08.872Z,1.10
2023-02-18T04:37:37.614Z,0.30
2023-02-18T04:40:07.208Z,0.40
2023-02-18T04:42:35.522Z,0.90
2023-02-18T04:45:04.061Z,0.90
2023-02-18T04:47:32.648Z,0.40
2023-02-18T04:50:01.891Z,0.70
2023-02-18T04:52:29.635Z,0.40
2023-02-18T04:54:57.312Z,0.70
2023-02-18T04:57:25.384Z,0.30
2023-02-18T04:59:53.216Z,0.50
2023-02-18T05:02:20.981Z,0.40
2023-02-18T05:04:53.085Z,0.40
2023-02-18T05:07:20.815Z,0.60
2023-02-18T05:09:49.063Z,0.40
2023-02-18T05:12:17.212Z,0.50
2023-02-18T05:14:45.023Z,1.20
2023-02-18T05:17:12.685Z,1.40
2023-02-18T05:19:41.760Z,0.50
2023-02-18T05:22:09.740Z,2.00
2023-02-18T05:24:37.438Z,0.40
2023-02-18T05:27:05.186Z,0.40
2023-02-18T05:29:37.529Z,0.40
2023-02-18T05:32:05.748Z,1.10
2023-02-18T05:34:33.596Z,0.50
2023-02-18T05:37:01.658Z,1.10
2023-02-18T05:39:30.490Z,0.40
2023-02-18T05:41:58.166Z,1.00
2023-02-18T05:44:32.646Z,1.40
2023-02-18T05:49:33.091Z,0.40
2023-02-18T05:52:01.191Z,2.20
2023-02-18T05:54:29.530Z,0.40
2023-02-18T05:56:59.694Z,0.40
2023-02-18T05:59:27.942Z,0.50
2023-02-18T06:01:56.193Z,0.40
2023-02-18T06:04:25.008Z,0.40
2023-02-18T06:06:54.965Z,0.50
2023-02-18T06:09:22.768Z,1.20
2023-02-18T06:11:51.589Z,0.50
2023-02-18T06:14:19.628Z,0.50
2023-02-18T06:16:47.394Z,0.40
2023-02-18T06:19:16.857Z,0.40
2023-02-18T06:21:44.700Z,0.50
2023-02-18T06:24:12.485Z,0.40
2023-02-18T06:26:40.709Z,0.40
2023-02-18T06:29:08.443Z,0.70
2023-02-18T06:31:37.976Z,0.40
2023-02-18T06:34:06.453Z,0.60
2023-02-18T06:36:34.580Z,0.80
2023-02-18T06:39:06.381Z,0.50
2023-02-18T06:41:35.146Z,0.60
2023-02-18T06:44:03.443Z,0.50
2023-02-18T06:46:32.417Z,0.50
2023-02-18T06:49:00.397Z,2.30
2023-02-18T06:51:28.233Z,0.80
2023-02-18T06:53:56.654Z,1.40
2023-02-18T06:56:24.582Z,0.40
2023-02-18T06:58:52.352Z,0.40
2023-02-18T07:01:20.067Z,0.50
2023-02-18T07:03:50.182Z,0.50
2023-02-18T07:06:18.951Z,0.40
2023-02-18T07:08:46.818Z,0.40
2023-02-18T07:11:16.229Z,0.60
2023-02-18T07:13:43.900Z,0.60
2023-02-18T07:16:12.149Z,1.00
2023-02-18T07:18:40.264Z,0.80
2023-02-18T07:21:08.756Z,0.50
2023-02-18T07:23:36.464Z,0.50
2023-02-18T07:26:11.136Z,0.70
2023-02-18T07:28:40.981Z,0.80
2023-02-18T07:31:10.018Z,1.00
2023-02-18T07:33:38.018Z,0.80
2023-02-18T07:36:07.372Z,1.20
2023-02-18T07:38:37.686Z,1.90
2023-02-18T07:41:06.988Z,1.60
2023-02-18T07:43:34.715Z,0.60
2023-02-18T07:46:07.242Z,0.90
2023-02-18T07:48:36.053Z,0.40
2023-02-18T07:51:09.510Z,0.40
2023-02-18T07:53:38.494Z,0.30
2023-02-18T07:56:07.109Z,0.60
2023-02-18T07:58:38.383Z,0.60
2023-02-18T08:01:13.186Z,0.70
2023-02-18T08:03:42.447Z,1.10
2023-02-18T08:06:37.170Z,1.10
2023-02-18T08:09:21.010Z,1.90
2023-02-18T08:11:49.220Z,0.60
2023-02-18T08:14:17.119Z,0.70
2023-02-18T08:16:44.932Z,1.30
2023-02-18T08:19:13.383Z,0.70
2023-02-18T08:21:43.706Z,1.30
2023-02-18T08:24:11.574Z,0.60
2023-02-18T08:26:46.142Z,0.70
2023-02-18T08:29:26.203Z,0.60
2023-02-18T08:32:04.043Z,1.60
2023-02-18T08:34:32.428Z,1.60
2023-02-18T08:37:03.097Z,1.40
2023-02-18T08:39:39.784Z,1.20
2023-02-18T08:42:08.955Z,1.20
2023-02-18T08:44:36.690Z,0.90
2023-02-18T08:47:04.963Z,1.10
2023-02-18T08:49:54.707Z,0.90
2023-02-18T08:52:22.943Z,1.10
2023-02-18T08:54:51.318Z,1.20
2023-02-18T08:57:21.751Z,1.50
2023-02-18T08:59:51.737Z,0.90
2023-02-18T09:02:19.672Z,5.20
2023-02-18T09:04:49.286Z,1.40
2023-02-18T09:07:17.144Z,1.10
2023-02-18T09:09:45.648Z,1.60
2023-02-18T09:12:16.141Z,0.90
2023-02-18T09:14:43.859Z,0.80
2023-02-18T09:17:11.913Z,0.70
2023-02-18T09:19:40.963Z,0.90
2023-02-18T09:22:10.615Z,1.00
2023-02-18T09:24:40.602Z,2.00
2023-02-18T09:27:11.187Z,2.00
2023-02-18T09:29:41.238Z,1.20
2023-02-18T09:32:09.418Z,1.00
2023-02-18T09:34:37.487Z,1.20
2023-02-18T09:37:08.136Z,0.70
2023-02-18T09:39:37.129Z,0.70
2023-02-18T09:42:14.826Z,0.80
2023-02-18T09:44:54.325Z,0.70
2023-02-18T09:47:36.273Z,2.60
2023-02-18T09:50:37.634Z,0.80
2023-02-18T09:53:06.207Z,1.10
2023-02-18T09:55:41.170Z,0.60
2023-02-18T09:58:19.943Z,0.60
2023-02-18T10:00:54.423Z,0.80
2023-02-18T10:03:27.329Z,0.60
2023-02-18T10:06:03.337Z,0.40
2023-02-18T10:08:46.009Z,1.30
2023-02-18T10:11:27.913Z,0.50
2023-02-18T10:14:03.678Z,0.60
2023-02-18T10:16:31.791Z,0.70
2023-02-18T10:19:12.596Z,0.70
2023-02-18T10:21:41.975Z,0.80
2023-02-18T10:24:28.764Z,0.50
2023-02-18T10:26:58.530Z,0.40
2023-02-18T10:29:31.097Z,0.40
2023-02-18T10:32:28.258Z,0.30
2023-02-18T10:35:25.711Z,0.40
2023-02-18T10:38:15.031Z,0.50
2023-02-18T10:41:19.734Z,0.40
2023-02-18T10:44:08.281Z,0.40
2023-02-18T10:47:00.577Z,0.40
2023-02-18T10:50:02.310Z,0.40
2023-02-18T10:52:36.696Z,0.30
2023-02-18T10:55:12.868Z,0.50
2023-02-18T10:57:55.864Z,0.30
2023-02-18T11:00:28.162Z,0.50
2023-02-18T11:03:41.034Z,0.30
2023-02-18T11:06:32.875Z,0.40
2023-02-18T11:09:02.113Z,0.40
2023-02-18T11:11:42.778Z,0.50
2023-02-18T11:14:40.204Z,0.50
2023-02-18T11:17:38.803Z,1.90
2023-02-18T11:20:37.216Z,0.40
2023-02-18T11:23:08.064Z,1.20
2023-02-18T11:25:40.508Z,1.10
2023-02-18T11:28:13.826Z,0.40
2023-02-18T11:30:53.484Z,0.30
2023-02-18T11:33:41.304Z,0.40
2023-02-18T11:36:27.307Z,0.70
2023-02-18T11:39:24.542Z,0.50
2023-02-18T11:42:06.756Z,0.60
2023-02-18T11:44:41.164Z,0.50
2023-02-18T11:47:22.608Z,0.20
2023-02-18T11:50:09.080Z,0.40
2023-02-18T11:52:40.557Z,0.30
2023-02-18T11:55:18.727Z,0.30
2023-02-18T11:58:02.740Z,0.40
2023-02-18T12:00:56.920Z,0.40
2023-02-18T12:04:12.994Z,0.30
2023-02-18T12:07:05.721Z,1.10
2023-02-18T12:09:55.015Z,0.50
2023-02-18T12:12:46.353Z,4.70
2023-02-18T12:15:55.858Z,0.40
2023-02-18T12:18:51.530Z,4.80
2023-02-18T12:21:43.645Z,0.90
2023-02-18T12:24:52.432Z,0.40
2023-02-18T12:27:43.226Z,0.50
2023-02-18T12:30:33.186Z,0.40
2023-02-18T12:33:37.296Z,0.60
2023-02-18T12:36:42.541Z,0.40
2023-02-18T12:39:57.608Z,0.40
2023-02-18T12:42:52.568Z,0.50
2023-02-18T12:46:02.171Z,0.40
2023-02-18T12:48:37.745Z,0.40
2023-02-18T12:51:42.835Z,0.50
2023-02-18T12:54:34.097Z,0.70
2023-02-18T12:57:30.119Z,0.80
2023-02-18T13:00:31.883Z,0.30
2023-02-18T13:03:40.538Z,0.30
2023-02-18T13:06:38.522Z,0.30
2023-02-18T13:09:10.770Z,0.70
2023-02-18T13:11:51.117Z,0.30
2023-02-18T13:14:26.043Z,0.30
2023-02-18T13:16:58.680Z,0.90
2023-02-18T13:20:14.378Z,0.80
2023-02-18T13:22:44.184Z,0.40
2023-02-18T13:25:14.568Z,0.30
2023-02-18T13:27:51.337Z,0.40
2023-02-18T13:30:30.034Z,0.50
2023-02-18T13:33:19.760Z,0.30
2023-02-18T13:36:05.642Z,0.50
2023-02-18T13:38:51.982Z,0.40
2023-02-18T13:41:21.738Z,0.40
2023-02-18T13:43:51.324Z,1.00
2023-02-18T13:46:26.335Z,0.70
2023-02-18T13:49:00.588Z,0.40
2023-02-18T13:51:44.764Z,0.40
2023-02-18T13:54:29.666Z,0.70
2023-02-18T13:57:20.633Z,0.40
2023-02-18T14:00:02.086Z,0.60
2023-02-18T14:02:36.582Z,0.30
2023-02-18T14:05:41.697Z,0.90
2023-02-18T14:08:50.054Z,0.20
2023-02-18T14:11:20.426Z,0.90
2023-02-18T14:14:15.684Z,0.30
2023-02-18T14:17:18.185Z,0.70
2023-02-18T14:20:28.060Z,0.70
2023-02-18T14:22:57.807Z,0.60
2023-02-18T14:25:41.023Z,0.30
2023-02-18T14:28:34.107Z,0.30
2023-02-18T14:33:38.380Z,2.00
2023-02-18T14:36:36.481Z,0.40
2023-02-18T14:39:22.822Z,3.70
2023-02-18T14:42:06.470Z,1.50
2023-02-18T14:45:10.917Z,0.40
2023-02-18T14:48:14.496Z,0.40
2023-02-18T14:50:49.298Z,0.70
2023-02-18T14:53:25.382Z,0.40
2023-02-18T14:56:05.360Z,1.00
2023-02-18T14:58:41.892Z,0.60
2023-02-18T15:01:31.877Z,0.40
2023-02-18T15:04:03.412Z,0.50
2023-02-18T15:06:36.264Z,0.40
2023-02-18T15:09:18.290Z,0.80
2023-02-18T15:12:21.095Z,0.50
2023-02-18T15:14:54.015Z,0.60
2023-02-18T15:17:29.546Z,0.60
2023-02-18T15:20:06.099Z,1.80
2023-02-18T15:22:36.279Z,4.20
2023-02-18T15:25:05.312Z,1.80
2023-02-18T15:27:44.508Z,0.80
2023-02-18T15:30:31.281Z,0.50
2023-02-18T15:33:02.373Z,0.80
2023-02-18T15:35:33.531Z,1.20
2023-02-18T15:38:05.072Z,0.50
2023-02-18T15:40:37.919Z,0.90
2023-02-18T15:43:08.306Z,0.40
2023-02-18T15:45:46.139Z,3.30
2023-02-18T15:48:47.602Z,0.70
2023-02-18T15:51:22.314Z,1.30
2023-02-18T15:53:56.512Z,0.90
2023-02-18T15:56:33.003Z,1.50
2023-02-18T15:59:44.460Z,0.40
2023-02-18T16:02:26.739Z,0.50
2023-02-18T16:05:05.152Z,0.30
2023-02-18T16:07:56.229Z,1.70
2023-02-18T16:10:43.060Z,2.70
2023-02-18T16:13:17.408Z,1.20
2023-02-18T16:15:50.547Z,0.60
2023-02-18T16:18:40.264Z,0.70
2023-02-18T16:21:38.312Z,2.30
2023-02-18T16:24:33.651Z,0.60
2023-02-18T16:27:03.724Z,1.00
2023-02-18T16:29:41.352Z,0.60
2023-02-18T16:32:09.294Z,0.60
2023-02-18T16:34:41.798Z,1.50
2023-02-18T16:37:40.582Z,1.30
2023-02-18T16:40:43.057Z,1.90
2023-02-18T16:43:27.664Z,2.30
2023-02-18T16:45:58.957Z,0.60
2023-02-18T16:48:43.461Z,1.20
2023-02-18T16:51:18.069Z,0.50
2023-02-18T16:53:46.130Z,0.80
2023-02-18T16:56:18.473Z,0.70
2023-02-18T16:58:48.025Z,1.40
2023-02-18T17:01:27.543Z,2.40
2023-02-18T17:03:57.687Z,0.60
2023-02-18T17:06:25.881Z,0.90
2023-02-18T17:08:55.732Z,1.00
2023-02-18T17:11:26.992Z,0.40
2023-02-18T17:14:00.365Z,1.40
2023-02-18T17:16:30.167Z,1.10
2023-02-18T17:18:58.283Z,1.10
2023-02-18T17:21:26.863Z,0.80
2023-02-18T17:23:54.992Z,1.60
2023-02-18T17:26:28.032Z,1.40
2023-02-18T17:29:00.443Z,2.80
2023-02-18T17:31:36.545Z,1.50
2023-02-18T17:34:09.204Z,0.80
2023-02-18T17:36:37.032Z,0.90
2023-02-18T17:39:14.396Z,3.00
2023-02-18T17:41:43.000Z,0.90
2023-02-18T17:44:20.742Z,1.70
2023-02-18T17:46:50.062Z,2.50
2023-02-18T17:49:19.079Z,0.80
2023-02-18T17:51:47.923Z,2.00
2023-02-18T17:54:22.740Z,2.90
2023-02-18T17:56:51.436Z,2.80
2023-02-18T17:59:21.633Z,0.90
2023-02-18T18:01:49.333Z,2.30
2023-02-18T18:04:20.109Z,1.90
2023-02-18T18:06:49.776Z,3.20
2023-02-18T18:09:18.123Z,1.20
2023-02-18T18:11:45.966Z,2.70
2023-02-18T18:14:15.200Z,1.40
2023-02-18T18:16:44.259Z,2.60
2023-02-18T18:19:14.979Z,1.20
2023-02-18T18:21:45.628Z,2.40
2023-02-18T18:24:13.935Z,2.10
2023-02-18T18:26:42.429Z,2.70
2023-02-18T18:29:10.505Z,1.70
2023-02-18T18:31:41.295Z,3.30
2023-02-18T18:34:13.793Z,1.70
2023-02-18T18:36:49.742Z,1.50
2023-02-18T18:39:17.973Z,0.70
2023-02-18T18:41:45.630Z,1.90
2023-02-18T18:44:13.775Z,0.70
2023-02-18T18:46:42.195Z,0.90
2023-02-18T18:49:13.112Z,1.50
2023-02-18T18:51:42.316Z,1.00
2023-02-18T18:54:12.684Z,0.70
2023-02-18T18:56:40.599Z,0.90
2023-02-18T18:59:10.873Z,3.00
2023-02-18T19:01:40.000Z,1.90
2023-02-18T19:04:08.305Z,1.30
2023-02-18T19:06:40.772Z,1.50
2023-02-18T19:09:10.673Z,6.50
2023-02-18T19:11:39.276Z,6.90
2023-02-18T19:14:15.212Z,6.60
2023-02-18T19:16:43.616Z,22.60
2023-02-18T19:19:12.467Z,17.20
2023-02-18T19:21:43.144Z,6.90
2023-02-18T19:24:12.626Z,6.20
2023-02-18T19:26:42.754Z,5.30
2023-02-18T19:29:13.407Z,4.10
2023-02-18T19:31:45.039Z,2.10
2023-02-18T19:34:17.149Z,2.30
2023-02-18T19:36:46.634Z,0.80
2023-02-18T19:39:14.415Z,0.60
2023-02-18T19:41:44.115Z,1.00
2023-02-18T19:44:13.751Z,1.00
2023-02-18T19:46:42.767Z,1.20
2023-02-18T19:49:11.713Z,1.50
2023-02-18T19:51:39.801Z,2.30
2023-02-18T19:54:14.725Z,0.70
2023-02-18T19:56:44.400Z,0.70
2023-02-18T19:59:16.034Z,0.60
2023-02-18T20:01:46.336Z,1.10
2023-02-18T20:04:19.464Z,0.60
2023-02-18T20:06:47.292Z,0.50
2023-02-18T20:09:15.276Z,0.70
2023-02-18T20:11:43.114Z,0.70
2023-02-18T20:14:14.394Z,0.70
2023-02-18T20:16:44.121Z,0.70
2023-02-18T20:19:12.117Z,1.20
2023-02-18T20:21:40.484Z,1.50
2023-02-18T20:24:11.448Z,0.80
2023-02-18T20:26:40.052Z,1.10
2023-02-18T20:29:07.854Z,0.90
2023-02-18T20:31:38.311Z,0.50
2023-02-18T20:34:08.232Z,0.90
2023-02-18T20:36:36.469Z,0.90
2023-02-18T20:39:15.505Z,0.90
2023-02-18T20:41:47.316Z,0.80
2023-02-18T20:44:17.193Z,1.20
2023-02-18T20:46:46.468Z,0.90
2023-02-18T20:49:22.761Z,1.10
2023-02-18T20:51:50.660Z,0.70
2023-02-18T20:54:23.856Z,0.60
2023-02-18T20:56:55.776Z,1.30
2023-02-18T20:59:34.439Z,0.70
2023-02-18T21:02:05.270Z,1.60
2023-02-18T21:04:36.746Z,1.40
2023-02-18T21:07:05.720Z,0.80
2023-02-18T21:09:33.534Z,0.70
2023-02-18T21:12:02.085Z,1.90
2023-02-18T21:14:33.339Z,1.40
2023-02-18T21:17:04.180Z,1.00
2023-02-18T21:19:34.010Z,1.00
2023-02-18T21:22:02.092Z,0.80
2023-02-18T21:24:32.596Z,2.00
2023-02-18T21:27:01.812Z,2.00
2023-02-18T21:29:30.067Z,2.80
2023-02-18T21:31:58.364Z,1.80
2023-02-18T21:34:27.112Z,3.00
2023-02-18T21:36:56.192Z,2.90
2023-02-18T21:39:23.904Z,3.40
2023-02-18T21:41:51.634Z,7.10
2023-02-18T21:44:24.998Z,6.50
2023-02-18T21:46:58.799Z,3.90
2023-02-18T21:49:28.028Z,5.50
2023-02-18T21:51:56.647Z,3.30
2023-02-18T21:54:44.999Z,5.60
2023-02-18T21:57:19.823Z,4.50
2023-02-18T21:59:49.829Z,9.70
2023-02-18T22:02:30.975Z,10.50
2023-02-18T22:05:02.638Z,26.90
2023-02-18T22:07:32.798Z,28.10
2023-02-18T22:10:00.877Z,4.70
2023-02-18T22:12:28.876Z,8.20
2023-02-18T22:14:56.570Z,13.50
2023-02-18T22:17:26.390Z,9.90
2023-02-18T22:19:54.392Z,7.80
2023-02-18T22:22:22.422Z,6.20
2023-02-18T22:24:51.858Z,1.30
2023-02-18T22:27:20.229Z,4.20
2023-02-18T22:29:48.752Z,4.60
2023-02-18T22:32:16.546Z,7.30
2023-02-18T22:34:46.160Z,6.10
2023-02-18T22:37:13.834Z,5.50
2023-02-18T22:39:41.709Z,4.60
2023-02-18T22:42:09.960Z,3.50
2023-02-18T22:44:39.612Z,2.80
2023-02-18T22:47:07.357Z,2.50
2023-02-18T22:49:35.858Z,2.40
2023-02-18T22:52:03.684Z,2.50
2023-02-18T22:54:31.882Z,3.00
2023-02-18T22:57:00.452Z,1.20
2023-02-18T22:59:28.298Z,2.50
2023-02-18T23:01:58.177Z,2.10
2023-02-18T23:04:27.268Z,2.50
2023-02-18T23:06:56.815Z,1.00
2023-02-18T23:09:26.478Z,0.90
2023-02-18T23:12:01.666Z,1.00
2023-02-18T23:14:30.675Z,0.80
2023-02-18T23:17:14.994Z,0.70
2023-02-18T23:19:50.711Z,0.60
2023-02-18T23:22:33.490Z,1.00
2023-02-18T23:25:02.518Z,1.30
2023-02-18T23:27:32.121Z,0.80
2023-02-18T23:30:00.014Z,0.90
2023-02-18T23:32:28.935Z,1.00
2023-02-18T23:34:59.606Z,0.50
2023-02-18T23:37:46.513Z,0.50
2023-02-18T23:40:14.970Z,0.90
2023-02-18T23:42:43.140Z,0.60
2023-02-18T23:45:11.546Z,0.80
2023-02-18T23:47:40.441Z,0.80
2023-02-18T23:50:08.856Z,0.60
2023-02-18T23:52:36.875Z,1.00
2023-02-18T23:55:05.291Z,0.60
2023-02-18T23:57:33.269Z,0.60
